Guapi, Guapi Airport (SKGP)

NameGuapi Airport
CityGuapi
CountryColombia
ICAOSKGP
IATAGPI
Altitude50 m
CoordinatesGoogle Map
Live Air TrafficLiveATC.net
METARSKGP 201500Z 18004KT 9999 SC007 BKN080 26/24 A2993
2018-12-20 15:00:00 Wind: South (180°) 2.06 m/s - Visibility: > 10000 m - Temperature: 26 °C - Dew point: 24 °C - Humidity: 88.8% - Pressure: 1013.55 hPa
Statistics

The table below shows the detailed information of all flights to/from Guapi, Guapi Airport (SKGP).